sensor_id;sensor_type;location;lat;lon;timestamp;pressure;altitude;pressure_sealevel;temperature;humidity
39105;BME280;46464;51.154;13.812;2023-04-08T00:00:24;52486.94;;;-146.96;100.00
39105;BME280;46464;51.154;13.812;2023-04-08T00:02:51;52448.28;;;-146.96;100.00
39105;BME280;46464;51.154;13.812;2023-04-08T00:05:17;52448.28;;;-146.96;100.00
39105;BME280;46464;51.154;13.812;2023-04-08T00:07:44;52440.13;;;-146.96;100.00
39105;BME280;46464;51.154;13.812;2023-04-08T00:10:10;52409.63;;;-146.96;100.00
39105;BME280;46464;51.154;13.812;2023-04-08T00:12:37;52454.38;;;-146.96;100.00
39105;BME280;46464;51.154;13.812;2023-04-08T00:15:04;52468.63;;;-146.96;100.00
39105;BME280;46464;51.154;13.812;2023-04-08T00:17:30;52436.06;;;-146.96;100.00
39105;BME280;46464;51.154;13.812;2023-04-08T00:19:57;52436.06;;;-146.96;100.00
39105;BME280;46464;51.154;13.812;2023-04-08T00:22:23;52468.63;;;-146.96;100.00
39105;BME280;46464;51.154;13.812;2023-04-08T00:24:51;52466.59;;;-146.96;100.00
39105;BME280;46464;51.154;13.812;2023-04-08T00:27:17;52458.44;;;-146.96;100.00
39105;BME280;46464;51.154;13.812;2023-04-08T00:29:44;52476.75;;;-146.96;100.00
39105;BME280;46464;51.154;13.812;2023-04-08T00:32:10;52454.38;;;-146.96;100.00
39105;BME280;46464;51.154;13.812;2023-04-08T00:34:37;52436.06;;;-146.96;100.00
39105;BME280;46464;51.154;13.812;2023-04-08T00:37:04;52448.28;;;-146.96;100.00
39105;BME280;46464;51.154;13.812;2023-04-08T00:39:30;52446.25;;;-146.96;100.00
39105;BME280;46464;51.154;13.812;2023-04-08T00:41:57;52486.94;;;-146.96;100.00
39105;BME280;46464;51.154;13.812;2023-04-08T00:44:23;52488.97;;;-146.96;100.00
39105;BME280;46464;51.154;13.812;2023-04-08T00:46:50;52468.63;;;-146.96;100.00
39105;BME280;46464;51.154;13.812;2023-04-08T00:49:17;52474.72;;;-146.96;100.00
39105;BME280;46464;51.154;13.812;2023-04-08T00:51:43;52476.75;;;-146.96;100.00
39105;BME280;46464;51.154;13.812;2023-04-08T00:54:10;52444.22;;;-146.96;100.00
39105;BME280;46464;51.154;13.812;2023-04-08T00:56:37;52432.00;;;-146.96;100.00
39105;BME280;46464;51.154;13.812;2023-04-08T00:59:04;52448.28;;;-146.96;100.00
39105;BME280;46464;51.154;13.812;2023-04-08T01:01:43;52476.75;;;-146.96;100.00
39105;BME280;46464;51.154;13.812;2023-04-08T01:07:02;52478.81;;;-146.96;100.00
39105;BME280;46464;51.154;13.812;2023-04-08T01:12:11;52425.91;;;-146.96;100.00
39105;BME280;46464;51.154;13.812;2023-04-08T01:14:42;52456.41;;;-146.96;100.00
39105;BME280;46464;51.154;13.812;2023-04-08T01:17:12;52476.75;;;-146.96;100.00
39105;BME280;46464;51.154;13.812;2023-04-08T01:19:41;52456.41;;;-146.96;100.00
39105;BME280;46464;51.154;13.812;2023-04-08T01:25:17;52478.81;;;-146.96;100.00
39105;BME280;46464;51.154;13.812;2023-04-08T01:27:45;52462.53;;;-146.96;100.00
39105;BME280;46464;51.154;13.812;2023-04-08T01:30:18;52456.41;;;-146.96;100.00
39105;BME280;46464;51.154;13.812;2023-04-08T01:32:46;52460.50;;;-146.96;100.00
39105;BME280;46464;51.154;13.812;2023-04-08T01:35:14;52499.16;;;-146.96;100.00
39105;BME280;46464;51.154;13.812;2023-04-08T01:37:42;52468.63;;;-146.96;100.00
39105;BME280;46464;51.154;13.812;2023-04-08T01:40:09;52444.22;;;-146.96;100.00
39105;BME280;46464;51.154;13.812;2023-04-08T01:42:36;52456.41;;;-146.96;100.00
39105;BME280;46464;51.154;13.812;2023-04-08T01:45:05;52454.38;;;-146.96;100.00
39105;BME280;46464;51.154;13.812;2023-04-08T01:47:33;52484.91;;;-146.96;100.00
39105;BME280;46464;51.154;13.812;2023-04-08T01:50:00;52450.31;;;-146.96;100.00
39105;BME280;46464;51.154;13.812;2023-04-08T01:52:26;52497.13;;;-146.96;100.00
39105;BME280;46464;51.154;13.812;2023-04-08T01:54:54;52448.28;;;-146.96;100.00
39105;BME280;46464;51.154;13.812;2023-04-08T01:57:26;52462.53;;;-146.96;100.00
39105;BME280;46464;51.154;13.812;2023-04-08T01:59:58;52493.03;;;-146.96;100.00
39105;BME280;46464;51.154;13.812;2023-04-08T02:02:26;52464.56;;;-146.96;100.00
39105;BME280;46464;51.154;13.812;2023-04-08T02:04:53;52440.13;;;-146.96;100.00
39105;BME280;46464;51.154;13.812;2023-04-08T02:07:20;52429.97;;;-146.96;100.00
39105;BME280;46464;51.154;13.812;2023-04-08T02:09:46;52462.53;;;-146.96;100.00
39105;BME280;46464;51.154;13.812;2023-04-08T02:12:13;52425.91;;;-146.96;100.00
39105;BME280;46464;51.154;13.812;2023-04-08T02:14:39;52474.72;;;-146.96;100.00
39105;BME280;46464;51.154;13.812;2023-04-08T02:17:12;52468.63;;;-146.96;100.00
39105;BME280;46464;51.154;13.812;2023-04-08T02:19:45;52472.69;;;-146.96;100.00
39105;BME280;46464;51.154;13.812;2023-04-08T02:22:26;52444.22;;;-146.96;100.00
39105;BME280;46464;51.154;13.812;2023-04-08T02:24:55;52452.34;;;-146.96;100.00
39105;BME280;46464;51.154;13.812;2023-04-08T02:27:24;52448.28;;;-146.96;100.00
39105;BME280;46464;51.154;13.812;2023-04-08T02:29:53;52436.06;;;-146.96;100.00
39105;BME280;46464;51.154;13.812;2023-04-08T02:32:22;52464.56;;;-146.96;100.00
39105;BME280;46464;51.154;13.812;2023-04-08T02:34:49;52472.69;;;-146.96;100.00
39105;BME280;46464;51.154;13.812;2023-04-08T02:37:16;52462.53;;;-146.96;100.00
39105;BME280;46464;51.154;13.812;2023-04-08T02:39:42;52464.56;;;-146.96;100.00
39105;BME280;46464;51.154;13.812;2023-04-08T02:42:09;52446.25;;;-146.96;100.00
39105;BME280;46464;51.154;13.812;2023-04-08T02:44:37;52456.41;;;-146.96;100.00
39105;BME280;46464;51.154;13.812;2023-04-08T02:47:03;52466.59;;;-146.96;100.00
39105;BME280;46464;51.154;13.812;2023-04-08T02:49:30;52452.34;;;-146.96;100.00
39105;BME280;46464;51.154;13.812;2023-04-08T02:51:56;52468.63;;;-146.96;100.00
39105;BME280;46464;51.154;13.812;2023-04-08T02:54:23;52478.81;;;-146.96;100.00
39105;BME280;46464;51.154;13.812;2023-04-08T02:56:50;52436.06;;;-146.96;100.00
39105;BME280;46464;51.154;13.812;2023-04-08T02:59:16;52425.91;;;-146.96;100.00
39105;BME280;46464;51.154;13.812;2023-04-08T03:01:43;52464.56;;;-146.96;100.00
39105;BME280;46464;51.154;13.812;2023-04-08T03:04:12;52476.75;;;-146.96;100.00
39105;BME280;46464;51.154;13.812;2023-04-08T03:06:39;52425.91;;;-146.96;100.00
39105;BME280;46464;51.154;13.812;2023-04-08T03:09:05;52434.03;;;-146.96;100.00
39105;BME280;46464;51.154;13.812;2023-04-08T03:11:32;52440.13;;;-146.96;100.00
39105;BME280;46464;51.154;13.812;2023-04-08T03:16:34;52421.81;;;-146.96;100.00
39105;BME280;46464;51.154;13.812;2023-04-08T03:19:00;52423.88;;;-146.96;100.00
39105;BME280;46464;51.154;13.812;2023-04-08T03:21:27;52454.38;;;-146.96;100.00
39105;BME280;46464;51.154;13.812;2023-04-08T03:23:53;52456.41;;;-146.96;100.00
39105;BME280;46464;51.154;13.812;2023-04-08T03:26:20;52464.56;;;-146.96;100.00
39105;BME280;46464;51.154;13.812;2023-04-08T03:28:47;52466.59;;;-146.96;100.00
39105;BME280;46464;51.154;13.812;2023-04-08T03:31:14;52466.59;;;-146.96;100.00
39105;BME280;46464;51.154;13.812;2023-04-08T03:33:41;52462.53;;;-146.96;100.00
39105;BME280;46464;51.154;13.812;2023-04-08T03:36:08;52448.28;;;-146.96;100.00
39105;BME280;46464;51.154;13.812;2023-04-08T03:38:35;52423.88;;;-146.96;100.00
39105;BME280;46464;51.154;13.812;2023-04-08T03:41:01;52427.94;;;-146.96;100.00
39105;BME280;46464;51.154;13.812;2023-04-08T03:43:29;52460.50;;;-146.96;100.00
39105;BME280;46464;51.154;13.812;2023-04-08T03:45:56;52436.06;;;-146.96;100.00
39105;BME280;46464;51.154;13.812;2023-04-08T03:48:23;52405.56;;;-146.96;100.00
39105;BME280;46464;51.154;13.812;2023-04-08T03:50:49;52444.22;;;-146.96;100.00
39105;BME280;46464;51.154;13.812;2023-04-08T03:53:16;52405.56;;;-146.96;100.00
39105;BME280;46464;51.154;13.812;2023-04-08T03:55:42;52448.28;;;-146.96;100.00
39105;BME280;46464;51.154;13.812;2023-04-08T03:58:09;52419.78;;;-146.96;100.00
39105;BME280;46464;51.154;13.812;2023-04-08T04:00:35;52423.88;;;-146.96;100.00
39105;BME280;46464;51.154;13.812;2023-04-08T04:03:02;52488.97;;;-146.96;100.00
39105;BME280;46464;51.154;13.812;2023-04-08T04:05:29;52456.41;;;-146.96;100.00
39105;BME280;46464;51.154;13.812;2023-04-08T04:07:55;52421.81;;;-146.96;100.00
39105;BME280;46464;51.154;13.812;2023-04-08T04:10:23;52432.00;;;-146.96;100.00
39105;BME280;46464;51.154;13.812;2023-04-08T04:12:50;52470.66;;;-146.96;100.00
39105;BME280;46464;51.154;13.812;2023-04-08T04:15:16;52466.59;;;-146.96;100.00
39105;BME280;46464;51.154;13.812;2023-04-08T04:17:42;52427.94;;;-146.96;100.00
39105;BME280;46464;51.154;13.812;2023-04-08T04:20:19;52464.56;;;-146.96;100.00
39105;BME280;46464;51.154;13.812;2023-04-08T04:22:47;52438.09;;;-146.96;100.00
39105;BME280;46464;51.154;13.812;2023-04-08T04:25:13;52470.66;;;-146.96;100.00
39105;BME280;46464;51.154;13.812;2023-04-08T04:27:39;52421.81;;;-146.96;100.00
39105;BME280;46464;51.154;13.812;2023-04-08T04:30:06;52450.31;;;-146.96;100.00
39105;BME280;46464;51.154;13.812;2023-04-08T04:32:34;52403.50;;;-146.96;100.00
39105;BME280;46464;51.154;13.812;2023-04-08T04:35:01;52452.34;;;-146.96;100.00
39105;BME280;46464;51.154;13.812;2023-04-08T04:37:27;52464.56;;;-146.96;100.00
39105;BME280;46464;51.154;13.812;2023-04-08T04:39:54;52468.63;;;-146.96;100.00
39105;BME280;46464;51.154;13.812;2023-04-08T04:42:20;52466.59;;;-146.96;100.00
39105;BME280;46464;51.154;13.812;2023-04-08T04:44:48;52448.28;;;-146.96;100.00
39105;BME280;46464;51.154;13.812;2023-04-08T04:47:15;52436.06;;;-146.96;100.00
39105;BME280;46464;51.154;13.812;2023-04-08T04:49:41;52452.34;;;-146.96;100.00
39105;BME280;46464;51.154;13.812;2023-04-08T04:52:08;52468.63;;;-146.96;100.00
39105;BME280;46464;51.154;13.812;2023-04-08T04:54:34;52440.13;;;-146.96;100.00
39105;BME280;46464;51.154;13.812;2023-04-08T04:57:01;52462.53;;;-146.96;100.00
39105;BME280;46464;51.154;13.812;2023-04-08T04:59:28;52462.53;;;-146.96;100.00
39105;BME280;46464;51.154;13.812;2023-04-08T05:01:55;52450.31;;;-146.96;100.00
39105;BME280;46464;51.154;13.812;2023-04-08T05:04:25;52434.03;;;-146.96;100.00
39105;BME280;46464;51.154;13.812;2023-04-08T05:06:52;52466.59;;;-146.96;100.00
39105;BME280;46464;51.154;13.812;2023-04-08T05:09:18;52446.25;;;-146.96;100.00
39105;BME280;46464;51.154;13.812;2023-04-08T05:11:45;52444.22;;;-146.96;100.00
39105;BME280;46464;51.154;13.812;2023-04-08T05:14:11;52497.13;;;-146.96;100.00
39105;BME280;46464;51.154;13.812;2023-04-08T05:16:37;52427.94;;;-146.96;100.00
39105;BME280;46464;51.154;13.812;2023-04-08T05:19:04;52448.28;;;-146.96;100.00
39105;BME280;46464;51.154;13.812;2023-04-08T05:21:31;52458.44;;;-146.96;100.00
39105;BME280;46464;51.154;13.812;2023-04-08T05:23:57;52468.63;;;-146.96;100.00
39105;BME280;46464;51.154;13.812;2023-04-08T05:26:24;52389.28;;;-146.96;100.00
39105;BME280;46464;51.154;13.812;2023-04-08T05:28:51;52482.88;;;-146.96;100.00
39105;BME280;46464;51.154;13.812;2023-04-08T05:31:18;52448.28;;;-146.96;100.00
39105;BME280;46464;51.154;13.812;2023-04-08T05:33:45;52462.53;;;-146.96;100.00
39105;BME280;46464;51.154;13.812;2023-04-08T05:36:13;52438.09;;;-146.96;100.00
39105;BME280;46464;51.154;13.812;2023-04-08T05:38:39;52432.00;;;-146.96;100.00
39105;BME280;46464;51.154;13.812;2023-04-08T05:41:08;52442.19;;;-146.96;100.00
39105;BME280;46464;51.154;13.812;2023-04-08T05:43:35;52442.19;;;-146.96;100.00
39105;BME280;46464;51.154;13.812;2023-04-08T05:46:05;52468.63;;;-146.96;100.00
39105;BME280;46464;51.154;13.812;2023-04-08T05:48:32;52425.91;;;-146.96;100.00
39105;BME280;46464;51.154;13.812;2023-04-08T05:50:59;52409.63;;;-146.96;100.00
39105;BME280;46464;51.154;13.812;2023-04-08T05:53:26;52460.50;;;-146.96;100.00
39105;BME280;46464;51.154;13.812;2023-04-08T05:55:52;52442.19;;;-146.96;100.00
39105;BME280;46464;51.154;13.812;2023-04-08T05:58:19;52452.34;;;-146.96;100.00
39105;BME280;46464;51.154;13.812;2023-04-08T06:00:46;52480.84;;;-146.96;100.00
39105;BME280;46464;51.154;13.812;2023-04-08T06:03:12;52442.19;;;-146.96;100.00
39105;BME280;46464;51.154;13.812;2023-04-08T06:05:40;52440.13;;;-146.96;100.00
39105;BME280;46464;51.154;13.812;2023-04-08T06:08:07;52432.00;;;-146.96;100.00
39105;BME280;46464;51.154;13.812;2023-04-08T06:10:33;52425.91;;;-146.96;100.00
39105;BME280;46464;51.154;13.812;2023-04-08T06:13:00;52415.72;;;-146.96;100.00
39105;BME280;46464;51.154;13.812;2023-04-08T06:15:26;52399.44;;;-146.96;100.00
39105;BME280;46464;51.154;13.812;2023-04-08T06:17:53;52417.75;;;-146.96;100.00
39105;BME280;46464;51.154;13.812;2023-04-08T06:20:19;52429.97;;;-146.96;100.00
39105;BME280;46464;51.154;13.812;2023-04-08T06:22:46;52440.13;;;-146.96;100.00
39105;BME280;46464;51.154;13.812;2023-04-08T06:25:12;52460.50;;;-146.96;100.00
39105;BME280;46464;51.154;13.812;2023-04-08T06:27:39;52427.94;;;-146.96;100.00
39105;BME280;46464;51.154;13.812;2023-04-08T06:30:06;52484.91;;;-146.96;100.00
39105;BME280;46464;51.154;13.812;2023-04-08T06:32:33;52440.13;;;-146.96;100.00
39105;BME280;46464;51.154;13.812;2023-04-08T06:34:59;52460.50;;;-146.96;100.00
39105;BME280;46464;51.154;13.812;2023-04-08T06:37:26;52425.91;;;-146.96;100.00
39105;BME280;46464;51.154;13.812;2023-04-08T06:39:52;52427.94;;;-146.96;100.00
39105;BME280;46464;51.154;13.812;2023-04-08T06:42:19;52448.28;;;-146.96;100.00
39105;BME280;46464;51.154;13.812;2023-04-08T06:44:48;52438.09;;;-146.96;100.00
39105;BME280;46464;51.154;13.812;2023-04-08T06:47:14;52460.50;;;-146.96;100.00
39105;BME280;46464;51.154;13.812;2023-04-08T06:49:42;52421.81;;;-146.96;100.00
39105;BME280;46464;51.154;13.812;2023-04-08T06:52:08;52438.09;;;-146.96;100.00
39105;BME280;46464;51.154;13.812;2023-04-08T06:54:35;52427.94;;;-146.96;100.00
39105;BME280;46464;51.154;13.812;2023-04-08T06:57:01;52399.44;;;-146.96;100.00
39105;BME280;46464;51.154;13.812;2023-04-08T06:59:29;52454.38;;;-146.96;100.00
39105;BME280;46464;51.154;13.812;2023-04-08T07:01:55;52438.09;;;-146.96;100.00
39105;BME280;46464;51.154;13.812;2023-04-08T07:04:22;52458.44;;;-146.96;100.00
39105;BME280;46464;51.154;13.812;2023-04-08T07:06:49;52436.06;;;-146.96;100.00
39105;BME280;46464;51.154;13.812;2023-04-08T07:09:16;52434.03;;;-146.96;100.00
39105;BME280;46464;51.154;13.812;2023-04-08T07:11:42;52409.63;;;-146.96;100.00
39105;BME280;46464;51.154;13.812;2023-04-08T07:14:09;52377.06;;;-146.96;100.00
39105;BME280;46464;51.154;13.812;2023-04-08T07:16:35;52438.09;;;-146.96;100.00
39105;BME280;46464;51.154;13.812;2023-04-08T07:19:02;52411.66;;;-146.96;100.00
39105;BME280;46464;51.154;13.812;2023-04-08T07:21:28;52415.72;;;-146.96;100.00
39105;BME280;46464;51.154;13.812;2023-04-08T07:23:56;52452.34;;;-146.96;100.00
39105;BME280;46464;51.154;13.812;2023-04-08T07:26:23;52411.66;;;-146.96;100.00
39105;BME280;46464;51.154;13.812;2023-04-08T07:28:49;52429.97;;;-146.96;100.00
39105;BME280;46464;51.154;13.812;2023-04-08T07:31:17;52391.31;;;-146.96;99.55
39105;BME280;46464;51.154;13.812;2023-04-08T07:33:44;52377.06;;;-146.96;96.79
39105;BME280;46464;51.154;13.812;2023-04-08T07:36:12;52395.38;;;-146.96;92.99
39105;BME280;46464;51.154;13.812;2023-04-08T07:38:40;52440.13;;;-146.96;90.15
39105;BME280;46464;51.154;13.812;2023-04-08T07:41:06;52440.13;;;-146.96;89.10
39105;BME280;46464;51.154;13.812;2023-04-08T07:43:33;52395.38;;;-146.96;87.96
39105;BME280;46464;51.154;13.812;2023-04-08T07:46:00;52383.16;;;-146.96;87.82
39105;BME280;46464;51.154;13.812;2023-04-08T07:48:30;52340.44;;;-146.96;87.32
39105;BME280;46464;51.154;13.812;2023-04-08T07:51:02;52403.50;;;-146.96;87.00
39105;BME280;46464;51.154;13.812;2023-04-08T07:53:35;52417.75;;;-146.96;87.38
39105;BME280;46464;51.154;13.812;2023-04-08T07:56:02;52389.28;;;-146.96;87.80
39105;BME280;46464;51.154;13.812;2023-04-08T07:58:29;52434.03;;;-146.96;87.65
39105;BME280;46464;51.154;13.812;2023-04-08T08:00:57;52395.38;;;-146.96;87.86
39105;BME280;46464;51.154;13.812;2023-04-08T08:03:24;52399.44;;;-146.96;87.91
39105;BME280;46464;51.154;13.812;2023-04-08T08:05:51;52336.38;;;-146.96;87.70
39105;BME280;46464;51.154;13.812;2023-04-08T08:08:18;52356.72;;;-146.96;87.14
39105;BME280;46464;51.154;13.812;2023-04-08T08:10:44;52368.94;;;-146.96;86.14
39105;BME280;46464;51.154;13.812;2023-04-08T08:13:11;52397.41;;;-146.96;85.92
39105;BME280;46464;51.154;13.812;2023-04-08T08:15:42;52348.56;;;-146.96;84.95
39105;BME280;46464;51.154;13.812;2023-04-08T08:18:08;52358.75;;;-146.96;84.28
39105;BME280;46464;51.154;13.812;2023-04-08T08:20:35;52387.22;;;-146.96;83.97
39105;BME280;46464;51.154;13.812;2023-04-08T08:23:02;52381.13;;;-146.96;81.44
39105;BME280;46464;51.154;13.812;2023-04-08T08:25:28;52332.28;;;-146.96;80.48
39105;BME280;46464;51.154;13.812;2023-04-08T08:27:54;52326.19;;;-146.96;78.30
39105;BME280;46464;51.154;13.812;2023-04-08T08:30:21;52318.06;;;-146.96;75.76
39105;BME280;46464;51.154;13.812;2023-04-08T08:32:48;52375.03;;;-146.96;76.66
39105;BME280;46464;51.154;13.812;2023-04-08T08:35:16;52366.88;;;-146.96;76.11
39105;BME280;46464;51.154;13.812;2023-04-08T08:37:43;52350.59;;;-146.96;77.01
39105;BME280;46464;51.154;13.812;2023-04-08T08:40:10;52358.75;;;-146.96;77.10
39105;BME280;46464;51.154;13.812;2023-04-08T08:42:38;52338.41;;;-146.96;76.54
39105;BME280;46464;51.154;13.812;2023-04-08T08:45:05;52352.66;;;-146.96;76.50
39105;BME280;46464;51.154;13.812;2023-04-08T08:47:32;52389.28;;;-146.96;77.29
39105;BME280;46464;51.154;13.812;2023-04-08T08:49:59;52350.59;;;-146.96;77.70
39105;BME280;46464;51.154;13.812;2023-04-08T08:52:25;52334.34;;;-146.96;77.37
39105;BME280;46464;51.154;13.812;2023-04-08T08:54:57;52352.66;;;-146.96;76.95
39105;BME280;46464;51.154;13.812;2023-04-08T08:57:24;52370.97;;;-146.96;76.47
39105;BME280;46464;51.154;13.812;2023-04-08T08:59:50;52342.47;;;-146.96;76.28
39105;BME280;46464;51.154;13.812;2023-04-08T09:02:25;52360.78;;;-146.96;76.89
39105;BME280;46464;51.154;13.812;2023-04-08T09:07:25;52354.69;;;-146.96;76.71
39105;BME280;46464;51.154;13.812;2023-04-08T09:09:53;52342.47;;;-146.96;76.85
39105;BME280;46464;51.154;13.812;2023-04-08T09:12:19;52366.88;;;-146.96;76.96
39105;BME280;46464;51.154;13.812;2023-04-08T09:14:46;52364.84;;;-146.96;77.18
39105;BME280;46464;51.154;13.812;2023-04-08T09:17:13;52377.06;;;-146.96;77.82
39105;BME280;46464;51.154;13.812;2023-04-08T09:20:06;52350.59;;;-146.96;78.03
39105;BME280;46464;51.154;13.812;2023-04-08T09:25:32;52352.66;;;-146.96;76.46
39105;BME280;46464;51.154;13.812;2023-04-08T09:27:59;52344.50;;;-146.96;76.11
39105;BME280;46464;51.154;13.812;2023-04-08T09:30:27;52356.72;;;-146.96;75.69
39105;BME280;46464;51.154;13.812;2023-04-08T09:32:57;52332.28;;;-146.96;76.61
39105;BME280;46464;51.154;13.812;2023-04-08T09:35:23;52346.53;;;-146.96;76.84
39105;BME280;46464;51.154;13.812;2023-04-08T09:37:50;52346.53;;;-146.96;76.95
39105;BME280;46464;51.154;13.812;2023-04-08T09:40:18;52340.44;;;-146.96;76.32
39105;BME280;46464;51.154;13.812;2023-04-08T09:42:47;52326.19;;;-146.96;75.84
39105;BME280;46464;51.154;13.812;2023-04-08T09:45:16;52311.94;;;-146.96;74.50
39105;BME280;46464;51.154;13.812;2023-04-08T09:47:55;52316.03;;;-146.96;73.45
39105;BME280;46464;51.154;13.812;2023-04-08T09:50:35;52336.38;;;-146.96;73.05
39105;BME280;46464;51.154;13.812;2023-04-08T09:53:12;52330.25;;;-146.96;71.58
39105;BME280;46464;51.154;13.812;2023-04-08T09:55:42;52356.72;;;-146.96;71.46
39105;BME280;46464;51.154;13.812;2023-04-08T09:58:18;52297.72;;;-146.96;71.80
39105;BME280;46464;51.154;13.812;2023-04-08T10:00:51;52316.03;;;-146.96;71.72
39105;BME280;46464;51.154;13.812;2023-04-08T10:03:28;52330.25;;;-146.96;71.14
39105;BME280;46464;51.154;13.812;2023-04-08T10:05:57;52301.78;;;-146.96;69.81
39105;BME280;46464;51.154;13.812;2023-04-08T10:08:26;52305.84;;;-146.96;68.58
39105;BME280;46464;51.154;13.812;2023-04-08T10:10:53;52309.91;;;-146.96;69.46
39105;BME280;46464;51.154;13.812;2023-04-08T10:13:22;52305.84;;;-146.96;68.85
39105;BME280;46464;51.154;13.812;2023-04-08T10:15:49;52261.09;;;-146.96;69.88
39105;BME280;46464;51.154;13.812;2023-04-08T10:20:46;52307.88;;;-146.96;69.26
39105;BME280;46464;51.154;13.812;2023-04-08T10:23:16;52279.41;;;-146.96;68.85
39105;BME280;46464;51.154;13.812;2023-04-08T10:25:43;52279.41;;;-146.96;69.21
39105;BME280;46464;51.154;13.812;2023-04-08T10:30:40;52297.72;;;-146.96;67.85
39105;BME280;46464;51.154;13.812;2023-04-08T10:33:15;52267.19;;;-146.96;67.33
39105;BME280;46464;51.154;13.812;2023-04-08T10:35:47;52318.06;;;-146.96;68.28
39105;BME280;46464;51.154;13.812;2023-04-08T10:38:15;52307.88;;;-146.96;68.31
39105;BME280;46464;51.154;13.812;2023-04-08T10:40:42;52301.78;;;-146.96;68.44
39105;BME280;46464;51.154;13.812;2023-04-08T10:43:10;52289.56;;;-146.96;68.25
39105;BME280;46464;51.154;13.812;2023-04-08T10:45:38;52293.63;;;-146.96;68.61
39105;BME280;46464;51.154;13.812;2023-04-08T10:50:39;52322.13;;;-146.96;69.68
39105;BME280;46464;51.154;13.812;2023-04-08T10:53:06;52340.44;;;-146.96;70.12
39105;BME280;46464;51.154;13.812;2023-04-08T10:55:33;52322.13;;;-146.96;70.14
39105;BME280;46464;51.154;13.812;2023-04-08T10:58:07;52340.44;;;-146.96;70.58
39105;BME280;46464;51.154;13.812;2023-04-08T11:00:38;52305.84;;;-146.96;70.89
39105;BME280;46464;51.154;13.812;2023-04-08T11:03:07;52354.69;;;-146.96;71.22
39105;BME280;46464;51.154;13.812;2023-04-08T11:05:35;52322.13;;;-146.96;71.34
39105;BME280;46464;51.154;13.812;2023-04-08T11:08:04;52373.00;;;-146.96;71.86
39105;BME280;46464;51.154;13.812;2023-04-08T11:10:36;52307.88;;;-146.96;71.89
39105;BME280;46464;51.154;13.812;2023-04-08T11:13:07;52360.78;;;-146.96;72.28
39105;BME280;46464;51.154;13.812;2023-04-08T11:15:35;52358.75;;;-146.96;72.48
39105;BME280;46464;51.154;13.812;2023-04-08T11:18:02;52340.44;;;-146.96;72.40
39105;BME280;46464;51.154;13.812;2023-04-08T11:20:31;52338.41;;;-146.96;71.97
39105;BME280;46464;51.154;13.812;2023-04-08T11:22:59;52344.50;;;-146.96;72.11
39105;BME280;46464;51.154;13.812;2023-04-08T11:25:27;52362.81;;;-146.96;71.69
39105;BME280;46464;51.154;13.812;2023-04-08T11:27:53;52303.81;;;-146.96;71.40
39105;BME280;46464;51.154;13.812;2023-04-08T11:30:21;52332.28;;;-146.96;70.99
39105;BME280;46464;51.154;13.812;2023-04-08T11:32:48;52301.78;;;-146.96;71.44
39105;BME280;46464;51.154;13.812;2023-04-08T11:35:15;52324.16;;;-146.96;71.08
39105;BME280;46464;51.154;13.812;2023-04-08T11:37:42;52322.13;;;-146.96;70.95
39105;BME280;46464;51.154;13.812;2023-04-08T11:40:11;52328.22;;;-146.96;71.13
39105;BME280;46464;51.154;13.812;2023-04-08T11:42:38;52334.34;;;-146.96;71.54
39105;BME280;46464;51.154;13.812;2023-04-08T11:45:12;52322.13;;;-146.96;72.16
39105;BME280;46464;51.154;13.812;2023-04-08T11:47:39;52338.41;;;-146.96;71.48
39105;BME280;46464;51.154;13.812;2023-04-08T11:50:07;52352.66;;;-146.96;72.00
39105;BME280;46464;51.154;13.812;2023-04-08T11:52:48;52342.47;;;-146.96;71.56
39105;BME280;46464;51.154;13.812;2023-04-08T11:55:29;52336.38;;;-146.96;71.73
39105;BME280;46464;51.154;13.812;2023-04-08T11:58:00;52326.19;;;-146.96;71.78
39105;BME280;46464;51.154;13.812;2023-04-08T12:00:27;52346.53;;;-146.96;72.18
39105;BME280;46464;51.154;13.812;2023-04-08T12:02:54;52340.44;;;-146.96;72.45
39105;BME280;46464;51.154;13.812;2023-04-08T12:05:21;52375.03;;;-146.96;72.87
39105;BME280;46464;51.154;13.812;2023-04-08T12:07:47;52338.41;;;-146.96;73.00
39105;BME280;46464;51.154;13.812;2023-04-08T12:10:14;52366.88;;;-146.96;73.17
39105;BME280;46464;51.154;13.812;2023-04-08T12:12:41;52352.66;;;-146.96;73.81
39105;BME280;46464;51.154;13.812;2023-04-08T12:15:08;52381.13;;;-146.96;73.59
39105;BME280;46464;51.154;13.812;2023-04-08T12:17:34;52350.59;;;-146.96;74.32
39105;BME280;46464;51.154;13.812;2023-04-08T12:20:01;52375.03;;;-146.96;74.92
39105;BME280;46464;51.154;13.812;2023-04-08T12:22:28;52397.41;;;-146.96;76.05
39105;BME280;46464;51.154;13.812;2023-04-08T12:24:54;52385.19;;;-146.96;75.66
39105;BME280;46464;51.154;13.812;2023-04-08T12:27:24;52352.66;;;-146.96;76.18
39105;BME280;46464;51.154;13.812;2023-04-08T12:29:50;52391.31;;;-146.96;76.23
39105;BME280;46464;51.154;13.812;2023-04-08T12:32:18;52334.34;;;-146.96;75.69
39105;BME280;46464;51.154;13.812;2023-04-08T12:34:46;52334.34;;;-146.96;75.34
39105;BME280;46464;51.154;13.812;2023-04-08T12:37:13;52358.75;;;-146.96;75.76
39105;BME280;46464;51.154;13.812;2023-04-08T12:39:39;52354.69;;;-146.96;75.61
39105;BME280;46464;51.154;13.812;2023-04-08T12:42:06;52391.31;;;-146.96;76.10
39105;BME280;46464;51.154;13.812;2023-04-08T12:44:32;52360.78;;;-146.96;76.97
39105;BME280;46464;51.154;13.812;2023-04-08T12:46:59;52350.59;;;-146.96;77.58
39105;BME280;46464;51.154;13.812;2023-04-08T12:49:25;52352.66;;;-146.96;77.76
39105;BME280;46464;51.154;13.812;2023-04-08T12:51:53;52389.28;;;-146.96;77.79